Time;durP1;ratioP1;P1;durP2;ratioP2;P2;SDS_P1;SDS_P2;PMS_P1;PMS_P2;Temp;Humidity;BMP_temperature;BMP_pressure;BME280_temperature;BME280_humidity;BME280_pressure;Samples;Min_cycle;Max_cycle;Signal;HPM_P1;HPM_P2
2022/02/21 00:00:52;;;;;;;;;119.75;106.75;10.50;69.60;;;;;;4901437;29;8797;-66
2022/02/21 00:03:20;;;;;;;;;112.25;105.50;10.20;71.60;;;;;;4901786;29;8777;-68
2022/02/21 00:05:49;;;;;;;;;115.50;98.75;10.20;72.00;;;;;;4901391;29;8781;-65
2022/02/21 00:08:15;;;;;;;;;110.00;97.50;10.10;73.40;;;;;;4901499;29;8773;-65
2022/02/21 00:10:41;;;;;;;;;105.00;97.00;10.20;72.50;;;;;;4900036;29;9441;-67
2022/02/21 00:13:07;;;;;;;;;105.00;96.00;10.10;72.80;;;;;;4901285;29;8801;-68
2022/02/21 00:15:33;;;;;;;;;109.00;103.00;9.90;74.40;;;;;;4901385;29;8801;-65
2022/02/21 00:17:59;;;;;;;;;113.75;100.50;10.00;73.20;;;;;;4901563;29;8816;-69
2022/02/21 00:20:25;;;;;;;;;99.25;92.25;10.20;71.00;;;;;;4901248;29;8954;-67
2022/02/21 00:22:50;;;;;;;;;115.50;93.75;10.20;70.70;;;;;;4901651;29;9524;-66
2022/02/21 00:25:16;;;;;;;;;104.50;97.50;10.20;71.30;;;;;;4901141;29;8824;-65
2022/02/21 00:27:42;;;;;;;;;102.25;93.25;10.40;69.40;;;;;;4901009;29;8844;-64
2022/02/21 00:30:09;;;;;;;;;92.25;81.50;10.50;68.10;;;;;;4901371;29;8773;-64
2022/02/21 00:32:35;;;;;;;;;93.75;86.50;10.10;69.70;;;;;;4901133;29;8797;-66
2022/02/21 00:35:01;;;;;;;;;88.75;74.75;9.60;73.70;;;;;;4900957;29;8820;-65
2022/02/21 00:37:27;;;;;;;;;95.00;77.75;9.60;74.30;;;;;;4901190;29;8893;-65
2022/02/21 00:39:53;;;;;;;;;98.00;86.25;9.60;74.20;;;;;;4900910;29;8797;-65
2022/02/21 00:42:21;;;;;;;;;94.50;79.50;9.90;71.30;;;;;;4900798;29;8801;-65
2022/02/21 00:44:48;;;;;;;;;96.75;87.25;10.10;69.50;;;;;;4900994;29;8781;-65
2022/02/21 00:47:15;;;;;;;;;92.00;77.75;10.20;68.60;;;;;;4900917;29;8821;-65
2022/02/21 00:49:41;;;;;;;;;84.25;70.75;10.30;67.80;;;;;;4900764;29;8788;-66
2022/02/21 00:52:07;;;;;;;;;92.00;82.50;10.00;69.20;;;;;;4900812;29;8837;-67
2022/02/21 00:54:33;;;;;;;;;96.00;82.25;10.00;69.10;;;;;;4900722;29;8785;-66
2022/02/21 00:56:58;;;;;;;;;100.50;90.00;9.60;71.00;;;;;;4900839;29;8794;-64
2022/02/21 00:59:24;;;;;;;;;99.25;87.75;9.20;75.20;;;;;;4900542;29;8805;-65
2022/02/21 01:01:51;;;;;;;;;101.75;86.75;9.30;75.00;;;;;;4900717;29;8825;-66
2022/02/21 01:04:17;;;;;;;;;105.00;93.00;9.10;75.80;;;;;;4900451;29;8793;-65
2022/02/21 01:06:43;;;;;;;;;90.50;77.75;9.10;75.60;;;;;;4900360;29;8877;-64
2022/02/21 01:09:08;;;;;;;;;91.50;77.00;9.20;74.10;;;;;;4900341;29;8782;-65
2022/02/21 01:11:34;;;;;;;;;86.75;69.50;9.40;73.00;;;;;;4900255;29;8796;-65
2022/02/21 01:14:00;;;;;;;;;85.00;71.25;9.40;73.00;;;;;;4900481;29;8789;-64
2022/02/21 01:16:27;;;;;;;;;92.25;77.00;8.80;78.00;;;;;;4900245;29;8968;-65
2022/02/21 01:18:53;;;;;;;;;91.50;79.50;8.60;82.30;;;;;;4900165;29;8785;-64
2022/02/21 01:21:19;;;;;;;;;91.25;73.75;9.10;77.60;;;;;;4899930;29;8782;-66
2022/02/21 01:23:46;;;;;;;;;94.75;79.50;9.20;75.60;;;;;;4900376;29;8820;-66
2022/02/21 01:26:11;;;;;;;;;78.00;63.50;9.10;76.60;;;;;;4900179;29;8817;-67
2022/02/21 01:28:37;;;;;;;;;91.25;74.50;8.90;76.50;;;;;;4900207;29;8873;-64
2022/02/21 01:31:03;;;;;;;;;96.00;77.25;9.00;75.20;;;;;;4899820;29;8832;-66
2022/02/21 01:33:29;;;;;;;;;82.00;66.75;9.30;73.20;;;;;;4899747;29;8893;-67
2022/02/21 01:35:56;;;;;;;;;88.25;72.50;9.10;72.90;;;;;;4900081;29;8778;-66
2022/02/21 01:38:22;;;;;;;;;83.75;65.50;9.30;71.10;;;;;;4899750;29;8781;-67
2022/02/21 01:40:49;;;;;;;;;85.75;68.50;9.30;71.00;;;;;;4899730;29;8810;-65
2022/02/21 01:43:14;;;;;;;;;86.25;69.00;9.60;68.70;;;;;;4899959;29;8785;-66
2022/02/21 01:45:40;;;;;;;;;91.25;78.25;9.40;70.00;;;;;;4899699;29;8806;-66
2022/02/21 01:48:06;;;;;;;;;85.50;66.50;9.10;70.70;;;;;;4899599;29;8944;-66
2022/02/21 01:50:32;;;;;;;;;80.25;61.00;8.40;75.00;;;;;;4899581;29;8785;-64
2022/02/21 01:52:58;;;;;;;;;67.25;56.25;8.40;76.80;;;;;;4899623;29;8825;-67
2022/02/21 01:55:25;;;;;;;;;77.50;61.00;8.10;78.10;;;;;;4899538;29;8812;-65
2022/02/21 01:57:51;;;;;;;;;79.75;63.75;8.30;79.30;;;;;;4899397;29;8812;-65
2022/02/21 02:00:18;;;;;;;;;70.75;58.50;8.40;78.40;;;;;;4899409;29;8805;-65
2022/02/21 02:02:46;;;;;;;;;82.00;63.25;8.80;75.60;;;;;;4899423;29;8782;-65
2022/02/21 02:05:14;;;;;;;;;73.00;58.00;8.60;76.10;;;;;;4899575;29;9460;-65
2022/02/21 02:07:40;;;;;;;;;80.00;62.25;8.70;76.20;;;;;;4899252;29;8840;-65
2022/02/21 02:10:07;;;;;;;;;72.50;55.00;8.70;76.70;;;;;;4899336;29;8778;-65
2022/02/21 02:12:33;;;;;;;;;78.25;62.00;8.60;77.10;;;;;;4899528;29;8773;-65
2022/02/21 02:14:59;;;;;;;;;72.75;58.50;9.00;74.50;;;;;;4899504;29;9561;-65
2022/02/21 02:17:25;;;;;;;;;76.75;61.75;9.10;73.60;;;;;;4899171;29;8912;-63
2022/02/21 02:19:51;;;;;;;;;86.00;66.75;9.30;71.10;;;;;;4899218;29;8797;-65
2022/02/21 02:22:22;;;;;;;;;79.25;64.25;9.50;68.60;;;;;;4899221;29;8900;-64
2022/02/21 02:24:53;;;;;;;;;83.75;62.25;9.60;67.60;;;;;;4899433;29;8789;-64
2022/02/21 02:27:20;;;;;;;;;78.25;60.00;9.80;66.50;;;;;;4899134;29;8817;-66
2022/02/21 02:29:51;;;;;;;;;79.50;63.00;9.80;65.80;;;;;;4899391;29;8896;-65
2022/02/21 02:32:16;;;;;;;;;79.50;61.50;9.00;69.30;;;;;;4898923;29;8802;-65
2022/02/21 02:34:44;;;;;;;;;79.50;62.50;8.50;73.20;;;;;;4898501;29;8798;-66
2022/02/21 02:37:10;;;;;;;;;79.75;61.75;8.40;74.80;;;;;;4899317;29;9480;-65
2022/02/21 02:39:37;;;;;;;;;87.25;66.75;8.60;74.30;;;;;;4899269;29;8792;-64
2022/02/21 02:42:03;;;;;;;;;81.25;61.75;8.80;72.10;;;;;;4899044;29;8789;-63
2022/02/21 02:44:29;;;;;;;;;78.75;62.00;8.60;74.10;;;;;;4897905;29;8785;-65
2022/02/21 02:46:55;;;;;;;;;78.25;59.75;8.20;76.70;;;;;;4898880;29;8845;-65
2022/02/21 02:49:21;;;;;;;;;74.25;60.50;8.10;79.30;;;;;;4899192;29;8789;-65
2022/02/21 02:51:46;;;;;;;;;75.50;60.00;8.30;78.40;;;;;;4899110;29;9436;-65
2022/02/21 02:54:13;;;;;;;;;71.75;56.25;8.20;78.10;;;;;;4899160;29;8893;-63
2022/02/21 02:56:40;;;;;;;;;68.00;53.50;8.20;79.30;;;;;;4899187;29;8816;-64
2022/02/21 02:59:06;;;;;;;;;71.75;56.75;8.30;77.90;;;;;;4898876;29;8810;-65
2022/02/21 03:01:32;;;;;;;;;70.00;57.00;8.30;78.20;;;;;;4899115;29;8789;-66
2022/02/21 03:03:58;;;;;;;;;68.50;54.25;8.70;76.00;;;;;;4899089;29;8797;-64
2022/02/21 03:06:24;;;;;;;;;72.50;56.50;8.90;74.00;;;;;;4898732;29;8833;-65
2022/02/21 03:08:50;;;;;;;;;65.00;55.00;9.00;73.40;;;;;;4899051;29;8829;-63
2022/02/21 03:11:16;;;;;;;;;71.00;55.25;8.40;77.40;;;;;;4898789;29;8798;-65
2022/02/21 03:13:42;;;;;;;;;67.75;55.75;8.10;80.80;;;;;;4898663;29;8785;-64
2022/02/21 03:16:08;;;;;;;;;69.75;56.00;8.20;80.80;;;;;;4898744;29;8820;-65
2022/02/21 03:18:34;;;;;;;;;76.75;59.00;8.40;78.90;;;;;;4898711;29;8865;-65
2022/02/21 03:21:00;;;;;;;;;71.75;55.75;8.50;78.10;;;;;;4898725;29;8805;-64
2022/02/21 03:23:26;;;;;;;;;63.50;52.75;8.60;76.90;;;;;;4899136;29;9651;-65
2022/02/21 03:25:51;;;;;;;;;67.50;55.00;8.40;77.50;;;;;;4898684;29;8801;-65
2022/02/21 03:28:18;;;;;;;;;72.75;58.25;8.50;77.50;;;;;;4898717;29;8773;-65
2022/02/21 03:30:44;;;;;;;;;67.50;52.25;8.70;75.00;;;;;;4898915;29;8785;-64
2022/02/21 03:33:11;;;;;;;;;70.50;55.75;8.60;74.60;;;;;;4898557;29;8832;-65
2022/02/21 03:35:37;;;;;;;;;69.75;56.00;8.40;76.50;;;;;;4898659;29;8781;-66
2022/02/21 03:38:03;;;;;;;;;73.25;57.75;8.40;75.50;;;;;;4898684;29;8789;-64
2022/02/21 03:40:30;;;;;;;;;73.00;56.50;8.70;74.00;;;;;;4898710;29;8758;-64
2022/02/21 03:42:56;;;;;;;;;71.50;56.75;8.80;71.90;;;;;;4898796;29;8819;-63
2022/02/21 03:45:22;;;;;;;;;72.00;57.00;8.80;72.20;;;;;;4900231;29;8807;-65
2022/02/21 03:47:53;;;;;;;;;70.25;57.75;8.30;75.80;;;;;;4901891;29;8817;-64
2022/02/21 03:50:19;;;;;;;;;77.50;59.50;8.30;74.80;;;;;;4902197;29;9455;-63
2022/02/21 03:52:45;;;;;;;;;80.00;62.50;8.00;77.00;;;;;;4902038;29;8817;-64
2022/02/21 03:55:11;;;;;;;;;86.50;66.75;8.10;77.60;;;;;;4902078;29;8798;-64
2022/02/21 03:57:37;;;;;;;;;82.25;64.25;8.00;78.10;;;;;;4902042;29;8849;-64
2022/02/21 04:00:10;;;;;;;;;79.50;64.00;7.60;81.90;;;;;;4902010;29;8800;-65
2022/02/21 04:02:36;;;;;;;;;81.50;63.75;7.80;85.50;;;;;;4901753;29;8777;-65
2022/02/21 04:05:03;;;;;;;;;74.00;58.25;7.60;88.20;;;;;;4901793;29;8856;-64
2022/02/21 04:07:29;;;;;;;;;70.25;54.75;7.60;89.70;;;;;;4901494;29;8785;-65
2022/02/21 04:09:55;;;;;;;;;77.75;59.50;7.70;89.10;;;;;;4901741;29;8888;-65
2022/02/21 04:12:21;;;;;;;;;72.50;58.00;7.70;85.90;;;;;;4916116;29;8981;-65
2022/02/21 04:14:47;;;;;;;;;69.00;53.50;7.90;84.50;;;;;;4901413;29;8895;-65
2022/02/21 04:17:13;;;;;;;;;76.25;60.50;8.10;80.50;;;;;;4900287;29;8953;-64
2022/02/21 04:19:39;;;;;;;;;76.00;60.00;8.30;77.10;;;;;;4901308;29;8820;-65
2022/02/21 04:22:10;;;;;;;;;64.50;53.50;8.20;78.30;;;;;;4901292;29;8834;-65
2022/02/21 04:24:36;;;;;;;;;72.50;56.00;8.50;75.30;;;;;;4901494;29;8778;-64
2022/02/21 04:27:03;;;;;;;;;82.25;63.25;9.00;71.40;;;;;;4901167;29;8794;-64
2022/02/21 04:29:28;;;;;;;;;80.25;62.50;9.30;68.20;;;;;;4901171;29;8784;-64
2022/02/21 04:31:54;;;;;;;;;66.00;52.75;9.50;66.70;;;;;;4901315;29;8790;-65
2022/02/21 04:34:20;;;;;;;;;58.25;47.00;9.50;66.90;;;;;;4901124;29;9409;-65
2022/02/21 04:36:46;;;;;;;;;64.25;51.50;9.50;66.80;;;;;;4900971;29;8810;-64
2022/02/21 04:39:12;;;;;;;;;54.25;45.00;9.60;66.60;;;;;;4900915;29;8778;-65
2022/02/21 04:41:38;;;;;;;;;76.00;61.50;9.70;65.70;;;;;;4900972;29;8805;-64
2022/02/21 04:44:03;;;;;;;;;73.00;56.50;10.00;64.30;;;;;;4901164;29;8878;-65
2022/02/21 04:46:30;;;;;;;;;74.50;60.25;10.20;63.40;;;;;;4901221;29;8777;-65
2022/02/21 04:48:56;;;;;;;;;72.25;58.00;10.20;62.70;;;;;;4901161;29;8781;-65
2022/02/21 04:51:22;;;;;;;;;76.75;61.00;10.20;62.20;;;;;;4901177;29;8804;-64
2022/02/21 04:53:47;;;;;;;;;75.75;60.00;10.30;61.70;;;;;;4899799;29;9445;-65
2022/02/21 04:56:13;;;;;;;;;74.50;59.25;10.50;61.10;;;;;;4900337;29;8933;-65
2022/02/21 04:58:39;;;;;;;;;67.00;54.50;10.60;60.60;;;;;;4900516;29;8778;-65
2022/02/21 05:01:05;;;;;;;;;71.75;56.25;10.70;60.20;;;;;;4900881;29;8781;-65
2022/02/21 05:03:31;;;;;;;;;96.25;75.00;10.60;59.80;;;;;;4900614;29;9471;-65
2022/02/21 05:05:56;;;;;;;;;102.25;89.00;10.40;60.50;;;;;;4900876;29;8758;-65
2022/02/21 05:08:22;;;;;;;;;84.00;69.00;9.80;61.90;;;;;;4900521;29;8837;-65
2022/02/21 05:10:48;;;;;;;;;88.00;73.25;9.90;62.60;;;;;;4900437;29;8885;-65
2022/02/21 05:13:14;;;;;;;;;86.75;66.25;10.20;61.60;;;;;;4900387;29;8785;-65
2022/02/21 05:15:39;;;;;;;;;87.50;68.25;10.20;61.10;;;;;;4900709;29;8762;-64
2022/02/21 05:18:05;;;;;;;;;92.50;78.00;10.30;60.30;;;;;;4900187;29;8909;-65
2022/02/21 05:20:31;;;;;;;;;90.50;75.00;10.30;60.10;;;;;;4900265;29;8782;-65
2022/02/21 05:22:57;;;;;;;;;90.75;76.50;10.40;60.30;;;;;;4900444;29;8845;-64
2022/02/21 05:25:22;;;;;;;;;98.50;86.75;10.40;61.10;;;;;;4900174;29;8797;-64
2022/02/21 05:27:48;;;;;;;;;103.00;90.00;10.50;59.70;;;;;;4900019;29;8813;-65
2022/02/21 05:30:14;;;;;;;;;101.25;90.75;10.50;59.50;;;;;;4900014;29;8781;-65
2022/02/21 05:32:41;;;;;;;;;94.00;75.75;10.60;59.20;;;;;;4900077;29;8855;-64
2022/02/21 05:35:07;;;;;;;;;99.50;90.50;10.30;59.20;;;;;;4900039;29;8900;-64
2022/02/21 05:37:33;;;;;;;;;90.75;71.75;9.90;60.60;;;;;;4899918;29;8813;-65
2022/02/21 05:39:59;;;;;;;;;125.00;113.75;10.10;59.40;;;;;;4900137;29;8777;-65
2022/02/21 05:42:25;;;;;;;;;149.50;137.00;10.20;58.40;;;;;;4900102;29;8781;-64
2022/02/21 05:44:50;;;;;;;;;120.50;103.75;10.20;57.70;;;;;;4900118;29;8797;-64
2022/02/21 05:47:16;;;;;;;;;125.25;112.75;10.20;56.90;;;;;;4899774;29;8786;-65
2022/02/21 05:49:42;;;;;;;;;112.00;105.00;10.30;56.80;;;;;;4899784;29;8804;-65
2022/02/21 05:52:08;;;;;;;;;116.00;100.75;10.20;56.10;;;;;;4899609;29;8822;-67
2022/02/21 05:54:33;;;;;;;;;126.25;106.75;10.10;56.30;;;;;;4899688;29;8793;-67
2022/02/21 05:57:00;;;;;;;;;139.00;125.50;10.10;56.20;;;;;;4899534;29;8953;-67
2022/02/21 05:59:26;;;;;;;;;139.75;128.25;10.00;56.20;;;;;;4899733;29;8798;-68
2022/02/21 06:01:51;;;;;;;;;153.50;137.50;9.80;56.50;;;;;;4899638;29;8796;-70
2022/02/21 06:04:17;;;;;;;;;135.25;124.25;9.90;56.80;;;;;;4899493;29;9417;-67
2022/02/21 06:06:43;;;;;;;;;124.75;116.75;10.00;56.20;;;;;;4899366;29;8778;-67
2022/02/21 06:09:09;;;;;;;;;133.00;118.50;10.00;56.20;;;;;;4899621;29;8778;-66
2022/02/21 06:11:35;;;;;;;;;134.50;118.75;10.10;55.80;;;;;;4899314;29;8781;-66
2022/02/21 06:14:01;;;;;;;;;136.00;121.50;10.00;55.60;;;;;;4899373;29;8813;-66
2022/02/21 06:16:26;;;;;;;;;140.75;126.00;9.90;55.90;;;;;;4899502;29;8840;-66
2022/02/21 06:18:52;;;;;;;;;148.25;133.50;9.90;56.20;;;;;;4899429;29;8781;-66
2022/02/21 06:21:18;;;;;;;;;187.00;167.75;10.00;55.90;;;;;;4899314;29;8804;-66
2022/02/21 06:23:44;;;;;;;;;201.75;174.25;10.10;55.30;;;;;;4899942;29;8809;-66
2022/02/21 06:26:10;;;;;;;;;170.25;151.75;9.90;54.90;;;;;;4899268;29;8816;-66
2022/02/21 06:28:36;;;;;;;;;174.00;158.25;9.90;55.10;;;;;;4899175;29;8925;-67
2022/02/21 06:31:03;;;;;;;;;170.25;153.25;10.00;55.20;;;;;;4899498;29;8804;-66
2022/02/21 06:33:29;;;;;;;;;172.00;156.00;9.90;55.60;;;;;;4899001;29;8920;-66
2022/02/21 06:35:55;;;;;;;;;167.50;157.00;9.90;55.60;;;;;;4899078;29;8936;-66
2022/02/21 06:38:20;;;;;;;;;164.25;148.00;10.00;55.40;;;;;;4898993;29;8794;-66
2022/02/21 06:40:46;;;;;;;;;168.50;149.50;10.00;55.50;;;;;;4899135;29;8848;-66
2022/02/21 06:43:14;;;;;;;;;162.00;149.50;10.00;55.60;;;;;;4899274;29;8884;-66
2022/02/21 06:45:39;;;;;;;;;169.50;156.25;10.00;56.20;;;;;;4899068;29;8785;-66
2022/02/21 06:48:05;;;;;;;;;187.25;166.75;9.90;56.10;;;;;;4897998;29;8817;-66
2022/02/21 06:50:31;;;;;;;;;169.50;161.75;10.10;56.50;;;;;;4899276;29;8800;-66
2022/02/21 06:52:57;;;;;;;;;189.25;171.00;9.90;58.00;;;;;;4899386;29;8838;-66
2022/02/21 06:55:23;;;;;;;;;187.75;174.75;10.10;57.90;;;;;;4899047;29;9420;-66
2022/02/21 06:57:51;;;;;;;;;193.25;175.00;10.20;56.50;;;;;;4898768;29;8904;-66
2022/02/21 07:00:17;;;;;;;;;179.00;150.25;10.40;56.60;;;;;;4898635;29;8793;-66
2022/02/21 07:02:44;;;;;;;;;210.00;192.25;10.40;57.20;;;;;;4898718;29;8793;-66
2022/02/21 07:05:10;;;;;;;;;201.00;187.25;10.40;57.50;;;;;;4899035;29;8793;-66
2022/02/21 07:07:36;;;;;;;;;218.00;207.00;10.50;57.40;;;;;;4898971;29;8793;-66
2022/02/21 07:10:03;;;;;;;;;211.25;193.25;10.50;58.10;;;;;;4898534;29;8770;-66
2022/02/21 07:12:30;;;;;;;;;227.00;203.50;10.50;58.40;;;;;;4897590;29;8881;-66
2022/02/21 07:14:56;;;;;;;;;220.50;196.00;10.50;58.90;;;;;;4897959;29;8907;-66
2022/02/21 07:17:22;;;;;;;;;226.75;214.25;10.70;58.90;;;;;;4898683;29;8825;-66
2022/02/21 07:19:49;;;;;;;;;230.25;210.75;10.50;59.20;;;;;;4899456;29;8774;-66
2022/02/21 07:22:15;;;;;;;;;238.75;223.00;10.50;60.10;;;;;;4902437;29;8832;-67
2022/02/21 07:24:41;;;;;;;;;250.00;225.00;10.70;60.00;;;;;;4902294;29;8793;-66
2022/02/21 07:27:08;;;;;;;;;234.75;214.75;10.90;59.60;;;;;;4901575;29;8797;-67
2022/02/21 07:29:36;;;;;;;;;223.75;206.25;11.00;60.10;;;;;;4902035;29;8817;-67
2022/02/21 07:32:03;;;;;;;;;206.25;190.00;10.90;60.80;;;;;;4901469;29;8908;-66
2022/02/21 07:34:29;;;;;;;;;184.00;173.00;10.90;61.40;;;;;;4902116;29;8882;-67
2022/02/21 07:36:55;;;;;;;;;186.25;165.25;11.10;60.90;;;;;;4901791;29;8833;-67
2022/02/21 07:39:20;;;;;;;;;179.25;162.25;11.00;61.10;;;;;;4901949;29;8840;-67
2022/02/21 07:41:46;;;;;;;;;175.00;159.50;11.10;61.20;;;;;;4901541;29;8806;-67
2022/02/21 07:44:12;;;;;;;;;155.25;144.50;11.20;61.20;;;;;;4901672;29;9327;-67
2022/02/21 07:46:38;;;;;;;;;161.75;145.50;11.40;60.50;;;;;;4902081;29;8789;-67
2022/02/21 07:49:04;;;;;;;;;145.75;131.75;11.50;60.60;;;;;;4901410;29;8896;-67
2022/02/21 07:51:30;;;;;;;;;129.75;117.50;11.60;60.60;;;;;;4901281;29;8819;-67
2022/02/21 07:53:56;;;;;;;;;126.50;114.50;11.60;61.20;;;;;;4902228;29;8809;-67
2022/02/21 07:56:22;;;;;;;;;121.00;109.75;11.60;61.50;;;;;;4901654;29;8826;-67
2022/02/21 07:58:48;;;;;;;;;140.00;127.75;11.70;62.00;;;;;;4901774;29;8758;-67
2022/02/21 08:01:14;;;;;;;;;140.25;129.75;11.90;61.40;;;;;;4902017;29;8800;-66
2022/02/21 08:03:40;;;;;;;;;130.75;121.00;11.90;61.20;;;;;;4901464;29;8812;-66
2022/02/21 08:06:06;;;;;;;;;137.25;124.50;12.10;60.90;;;;;;4901033;29;8789;-66
2022/02/21 08:08:32;;;;;;;;;112.75;106.50;12.30;60.60;;;;;;4901051;29;8785;-67
2022/02/21 08:10:58;;;;;;;;;106.25;102.00;12.40;61.50;;;;;;4901045;29;8797;-67
2022/02/21 08:13:24;;;;;;;;;112.25;101.25;12.40;62.30;;;;;;4901189;29;8777;-67
2022/02/21 08:15:50;;;;;;;;;97.50;85.75;12.50;62.10;;;;;;4901607;29;9555;-67
2022/02/21 08:18:16;;;;;;;;;86.25;75.00;12.40;63.20;;;;;;4900823;29;8849;-67
2022/02/21 08:20:42;;;;;;;;;92.00;81.50;12.50;62.90;;;;;;4900843;29;8801;-66
2022/02/21 08:23:07;;;;;;;;;84.75;68.50;12.60;62.90;;;;;;4901147;29;8955;-68
2022/02/21 08:25:33;;;;;;;;;88.25;75.00;12.80;62.60;;;;;;4901154;29;9425;-67
2022/02/21 08:27:59;;;;;;;;;85.25;69.50;12.60;63.70;;;;;;4901305;29;8812;-66
2022/02/21 08:30:25;;;;;;;;;86.25;76.00;12.60;64.10;;;;;;4915712;29;9460;-66
2022/02/21 08:32:51;;;;;;;;;85.25;75.25;12.60;64.60;;;;;;4898863;29;8817;-67
2022/02/21 08:35:18;;;;;;;;;84.50;73.75;12.90;65.10;;;;;;4900817;29;9464;-66
2022/02/21 08:37:44;;;;;;;;;62.00;49.25;13.00;63.80;;;;;;4901021;29;8810;-66
2022/02/21 08:40:13;;;;;;;;;81.00;64.00;13.00;64.30;;;;;;4901147;29;8894;-66
2022/02/21 08:42:40;;;;;;;;;84.75;68.25;13.30;63.10;;;;;;4898769;29;8821;-67
2022/02/21 08:45:07;;;;;;;;;74.75;60.00;13.50;62.70;;;;;;4900578;29;8821;-67
2022/02/21 08:47:33;;;;;;;;;78.50;66.75;13.70;62.00;;;;;;4901011;29;8786;-67
2022/02/21 08:49:59;;;;;;;;;82.00;69.00;13.80;61.60;;;;;;4899052;29;8882;-67
2022/02/21 08:52:25;;;;;;;;;82.00;66.25;14.00;61.70;;;;;;4899705;29;9585;-66
2022/02/21 08:54:51;;;;;;;;;70.25;54.25;14.20;60.80;;;;;;4897331;29;8900;-67
2022/02/21 08:57:17;;;;;;;;;79.25;60.75;14.40;60.00;;;;;;4899281;29;8838;-67
2022/02/21 08:59:43;;;;;;;;;70.75;57.00;14.60;60.10;;;;;;4899809;29;8778;-67
2022/02/21 09:02:10;;;;;;;;;75.75;59.00;14.90;59.20;;;;;;4899422;29;8769;-67
2022/02/21 09:04:36;;;;;;;;;81.25;66.50;15.10;57.90;;;;;;4899225;29;8898;-67
2022/02/21 09:07:02;;;;;;;;;82.00;70.25;15.10;59.00;;;;;;4899071;29;8770;-67
2022/02/21 09:09:28;;;;;;;;;77.25;63.25;15.20;58.60;;;;;;4898889;29;8804;-67
2022/02/21 09:11:54;;;;;;;;;76.00;61.25;14.90;60.00;;;;;;4899054;29;8759;-67
2022/02/21 09:14:20;;;;;;;;;68.25;54.00;15.50;57.10;;;;;;4898960;29;8789;-67
2022/02/21 09:16:46;;;;;;;;;71.00;55.00;15.80;55.40;;;;;;4898913;29;8842;-67
2022/02/21 09:19:12;;;;;;;;;67.75;55.25;16.10;54.70;;;;;;4900199;29;8786;-67
2022/02/21 09:21:38;;;;;;;;;58.25;49.00;16.20;53.90;;;;;;4900088;29;8787;-67
2022/02/21 09:24:04;;;;;;;;;62.25;50.75;16.40;53.70;;;;;;4900110;29;8775;-67
2022/02/21 09:26:32;;;;;;;;;63.75;50.00;16.60;52.50;;;;;;4899057;29;8813;-67
2022/02/21 09:28:58;;;;;;;;;56.25;44.50;16.70;52.40;;;;;;4899634;29;8805;-67
2022/02/21 09:31:25;;;;;;;;;56.75;46.00;16.90;52.50;;;;;;4899441;29;8799;-66
2022/02/21 09:33:51;;;;;;;;;58.25;48.50;17.00;52.00;;;;;;4898726;29;8819;-67
2022/02/21 09:36:16;;;;;;;;;52.00;43.50;17.20;51.10;;;;;;4897753;29;8984;-68
2022/02/21 09:38:43;;;;;;;;;55.00;45.00;17.40;51.20;;;;;;4897806;29;8810;-67
2022/02/21 09:41:09;;;;;;;;;50.75;41.00;17.40;50.90;;;;;;4899483;29;8817;-67
2022/02/21 09:43:35;;;;;;;;;52.50;44.25;17.70;49.90;;;;;;4899094;29;8864;-67
2022/02/21 09:46:04;;;;;;;;;54.00;42.25;18.00;49.50;;;;;;4899860;29;8801;-68
2022/02/21 09:48:30;;;;;;;;;53.25;42.25;18.30;48.90;;;;;;4899898;29;8796;-67
2022/02/21 09:51:01;;;;;;;;;47.75;38.00;18.40;47.80;;;;;;4899743;29;8904;-67
2022/02/21 09:53:32;;;;;;;;;56.25;44.50;18.60;46.90;;;;;;4898348;29;8833;-67
2022/02/21 09:55:58;;;;;;;;;40.75;34.00;18.70;46.50;;;;;;4899757;29;8802;-67
2022/02/21 09:58:25;;;;;;;;;33.67;29.67;18.80;45.90;;;;;;4899598;29;8829;-69
2022/02/21 10:00:53;;;;;;;;;32.67;31.00;18.30;44.10;;;;;;4899640;29;8793;-68
2022/02/21 10:03:42;;;;;;;;;30.67;28.00;18.30;44.50;;;;;;4899856;29;8782;-68
2022/02/21 10:06:29;;;;;;;;;24.00;21.00;18.30;44.70;;;;;;4896444;29;8786;-68
2022/02/21 10:09:08;;;;;;;;;25.67;22.67;18.40;43.10;;;;;;4899830;29;8785;-68
2022/02/21 10:11:40;;;;;;;;;26.33;26.00;18.40;45.40;;;;;;4899611;29;8811;-68
2022/02/21 10:14:09;;;;;;;;;27.33;27.00;18.60;44.00;;;;;;4899657;29;9436;-69
2022/02/21 10:16:57;;;;;;;;;19.00;18.67;18.50;44.90;;;;;;4899440;29;8821;-68
2022/02/21 10:19:23;;;;;;;;;20.00;20.00;18.80;44.80;;;;;;4899168;29;8920;-69
2022/02/21 10:22:01;;;;;;;;;36.00;32.00;19.10;42.20;;;;;;4899311;29;8831;-69
2022/02/21 10:24:30;;;;;;;;;20.67;20.00;19.10;42.50;;;;;;4899342;29;8919;-68
2022/02/21 10:27:04;;;;;;;;;19.33;16.00;18.70;42.50;;;;;;4899076;29;8789;-69
2022/02/21 10:29:34;;;;;;;;;17.33;15.33;18.60;41.20;;;;;;4899286;29;8804;-70
2022/02/21 10:32:10;;;;;;;;;10.33;10.33;19.10;39.30;;;;;;4899096;29;8793;-69
2022/02/21 10:34:37;;;;;;;;;15.00;13.33;19.20;38.10;;;;;;4899121;29;8793;-68
2022/02/21 10:37:07;;;;;;;;;15.67;15.67;19.90;37.40;;;;;;4899066;29;8896;-69
2022/02/21 10:39:34;;;;;;;;;20.33;19.67;20.30;37.10;;;;;;4899102;29;8804;-68
2022/02/21 10:42:02;;;;;;;;;17.33;17.33;21.50;35.20;;;;;;4899277;29;8781;-69
2022/02/21 10:44:35;;;;;;;;;12.67;12.67;26.10;30.00;;;;;;4899014;29;8785;-68
2022/02/21 10:47:05;;;;;;;;;15.75;15.00;27.30;25.90;;;;;;4899100;29;11531;-69
2022/02/21 10:49:33;;;;;;;;;15.67;15.67;26.50;26.70;;;;;;4898769;29;11539;-69
2022/02/21 10:52:00;;;;;;;;;16.25;15.50;26.40;27.00;;;;;;4898894;29;11551;-68
2022/02/21 10:54:35;;;;;;;;;15.00;15.00;27.60;26.60;;;;;;4899270;29;11507;-69
2022/02/21 10:57:02;;;;;;;;;18.33;18.33;29.40;25.00;;;;;;4902903;29;11619;-70
2022/02/21 10:59:31;;;;;;;;;19.00;19.00;29.10;25.50;;;;;;4902801;29;11548;-70
2022/02/21 11:02:02;;;;;;;;;13.25;13.25;32.30;23.70;;;;;;4902891;29;11531;-69
2022/02/21 11:04:29;;;;;;;;;10.75;10.75;31.60;22.60;;;;;;4902947;29;11527;-69
2022/02/21 11:06:56;;;;;;;;;13.00;13.00;30.50;22.60;;;;;;4902559;29;11539;-69
2022/02/21 11:09:26;;;;;;;;;11.00;11.00;29.60;22.90;;;;;;4902461;29;11534;-69
2022/02/21 11:11:53;;;;;;;;;12.00;12.00;27.90;24.40;;;;;;4902380;29;11509;-68
2022/02/21 11:14:23;;;;;;;;;7.25;7.25;26.20;26.20;;;;;;4902347;29;11509;-68
2022/02/21 11:16:50;;;;;;;;;15.00;15.00;25.00;27.20;;;;;;4902252;29;11538;-67
2022/02/21 11:19:17;;;;;;;;;18.67;18.67;25.20;28.00;;;;;;4902296;29;11673;-68
2022/02/21 11:21:44;;;;;;;;;17.33;17.33;26.20;27.00;;;;;;4902165;29;11623;-67
2022/02/21 11:24:13;;;;;;;;;14.00;14.00;27.30;26.50;;;;;;4902468;29;11533;-66
2022/02/21 11:26:53;;;;;;;;;13.75;13.75;28.20;25.00;;;;;;4902442;29;11515;-68
2022/02/21 11:29:54;;;;;;;;;10.50;10.50;28.20;24.50;;;;;;4902174;29;11624;-68
2022/02/21 11:32:21;;;;;;;;;10.25;10.25;28.50;24.50;;;;;;4901891;29;11558;-69
2022/02/21 11:35:08;;;;;;;;;10.50;10.50;30.00;23.70;;;;;;4902060;29;11522;-68
2022/02/21 11:37:33;;;;;;;;;11.75;11.25;32.10;22.60;;;;;;4901795;29;11565;-69
2022/02/21 11:40:00;;;;;;;;;7.75;7.75;33.40;20.90;;;;;;4916698;29;11512;-68
2022/02/21 11:42:28;;;;;;;;;9.75;9.75;31.10;21.10;;;;;;4901985;29;8872;-68
2022/02/21 11:44:58;;;;;;;;;10.50;10.50;30.50;22.20;;;;;;4901782;29;11529;-68
2022/02/21 11:47:39;;;;;;;;;7.50;7.50;31.30;22.00;;;;;;4902151;29;11524;-68
2022/02/21 11:50:21;;;;;;;;;10.00;10.00;32.60;21.60;;;;;;4901885;29;11478;-68
2022/02/21 11:52:49;;;;;;;;;14.50;14.50;33.70;20.70;;;;;;4901996;29;12370;-68
2022/02/21 11:55:32;;;;;;;;;16.75;16.75;33.00;20.80;;;;;;4902069;29;11493;-69
2022/02/21 11:58:18;;;;;;;;;17.00;17.00;31.90;22.10;;;;;;4901640;29;11585;-68
2022/02/21 12:00:45;;;;;;;;;8.75;8.75;34.80;20.20;;;;;;4898252;29;11558;-68
2022/02/21 12:03:26;;;;;;;;;8.00;8.00;38.30;18.00;;;;;;4901771;29;11501;-69
2022/02/21 12:05:57;;;;;;;;;6.00;6.00;37.20;17.40;;;;;;4901476;29;11519;-73
2022/02/21 12:08:29;;;;;;;;;7.75;7.75;34.00;18.50;;;;;;4916691;29;11513;-73
2022/02/21 12:11:03;;;;;;;;;7.25;7.25;32.60;19.80;;;;;;4920328;29;11563;-73
2022/02/21 12:13:31;;;;;;;;;14.00;14.00;33.80;19.30;;;;;;4920357;29;11464;-73
2022/02/21 12:16:04;;;;;;;;;11.50;11.50;35.00;18.60;;;;;;4920428;29;11648;-73
2022/02/21 12:18:30;;;;;;;;;9.25;9.25;33.30;19.40;;;;;;4920016;29;11684;-73
2022/02/21 12:21:13;;;;;;;;;7.50;7.50;32.00;19.50;;;;;;4920401;29;11590;-73
2022/02/21 12:24:00;;;;;;;;;13.00;13.00;29.10;22.00;;;;;;4920528;29;8815;-73
2022/02/21 12:26:35;;;;;;;;;9.25;9.25;26.50;24.10;;;;;;4917060;29;11639;-73
2022/02/21 12:29:10;;;;;;;;;8.25;8.25;24.40;25.90;;;;;;4920093;29;11575;-73
2022/02/21 12:31:57;;;;;;;;;7.25;7.25;23.00;28.50;;;;;;4919942;29;11663;-73
2022/02/21 12:34:24;;;;;;;;;10.33;10.33;23.10;28.60;;;;;;4919395;29;11510;-73
2022/02/21 12:36:51;;;;;;;;;9.00;9.00;22.60;29.10;;;;;;4919665;29;12273;-73